Time;durP1;ratioP1;P1;durP2;ratioP2;P2;SDS_P1;SDS_P2;PMS_P1;PMS_P2;Temp;Humidity;BMP_temperature;BMP_pressure;BME280_temperature;BME280_humidity;BME280_pressure;Samples;Min_cycle;Max_cycle;Signal;HPM_P1;HPM_P2
2022/07/19 00:02:04;;;;;;;2.50;0.90;;;;;;;20.19;41.54;100370.00;4488819;31;34145;-73
2022/07/19 00:04:52;;;;;;;2.40;1.17;;;;;;;19.95;41.89;100373.72;4488832;31;35642;-73
2022/07/19 00:07:39;;;;;;;2.65;1.00;;;;;;;19.69;43.63;100366.69;4500825;31;34983;-73
2022/07/19 00:10:27;;;;;;;3.65;1.00;;;;;;;19.85;44.26;100366.72;4500748;31;34780;-73
2022/07/19 00:13:13;;;;;;;3.00;0.90;;;;;;;19.58;44.22;100376.69;4488527;31;34964;-73
2022/07/19 00:16:00;;;;;;;3.03;1.00;;;;;;;19.84;44.19;100372.66;4500656;31;35581;-73
2022/07/19 00:18:47;;;;;;;3.67;1.15;;;;;;;19.89;42.46;100375.16;4488566;31;34935;-73
2022/07/19 00:21:33;;;;;;;4.55;1.00;;;;;;;19.82;43.22;100369.41;4500528;31;35441;-73
2022/07/19 00:24:20;;;;;;;2.50;0.60;;;;;;;19.72;43.05;100377.13;4500445;31;35052;-73
2022/07/19 00:27:06;;;;;;;1.87;0.90;;;;;;;19.96;42.19;100369.81;4501624;31;35636;-73
2022/07/19 00:29:53;;;;;;;2.05;0.90;;;;;;;19.88;43.33;100374.34;4490555;31;35126;-73
2022/07/19 00:32:39;;;;;;;2.42;0.73;;;;;;;19.80;43.37;100360.62;4490545;31;35446;-73
2022/07/19 00:35:26;;;;;;;2.40;0.85;;;;;;;19.68;43.59;100361.50;4487162;32;34082;-73
2022/07/19 00:38:14;;;;;;;3.58;0.98;;;;;;;19.60;43.08;100377.13;4494162;31;34744;-74
2022/07/19 00:41:02;;;;;;;2.60;0.90;;;;;;;19.53;42.38;100372.19;4502653;31;35121;-74
2022/07/19 00:43:50;;;;;;;4.50;0.70;;;;;;;19.56;42.51;100370.66;4502611;31;35574;-73
2022/07/19 00:46:37;;;;;;;2.12;0.80;;;;;;;19.22;43.06;100370.09;4502564;31;34117;-73
2022/07/19 00:49:24;;;;;;;4.90;1.27;;;;;;;19.01;43.42;100375.81;4502556;31;35670;-72
2022/07/19 00:52:13;;;;;;;3.83;0.95;;;;;;;19.31;42.96;100372.72;4490708;31;34978;-73
2022/07/19 00:55:00;;;;;;;1.23;0.60;;;;;;;19.30;43.31;100371.91;4502477;31;35513;-74
2022/07/19 00:57:48;;;;;;;2.12;0.90;;;;;;;18.75;44.59;100367.84;4502612;31;35105;-73
2022/07/19 01:00:38;;;;;;;3.35;0.85;;;;;;;18.71;46.07;100366.91;4502388;31;35557;-74
2022/07/19 01:03:34;;;;;;;4.28;0.95;;;;;;;18.83;46.18;100368.87;4479901;31;34990;-74
2022/07/19 01:06:21;;;;;;;2.50;1.00;;;;;;;19.32;44.51;100372.37;4502603;31;35428;-73
2022/07/19 01:09:08;;;;;;;3.22;0.80;;;;;;;19.46;43.86;100373.94;4490859;31;34986;-74
2022/07/19 01:11:56;;;;;;;3.53;1.15;;;;;;;19.49;43.30;100362.13;4502380;31;35704;-74
2022/07/19 01:14:43;;;;;;;2.47;0.95;;;;;;;19.60;44.44;100363.22;4486682;31;34865;-73
2022/07/19 01:17:29;;;;;;;5.20;1.20;;;;;;;19.46;45.47;100362.81;4502355;31;34643;-73
2022/07/19 01:20:17;;;;;;;3.78;1.10;;;;;;;19.18;45.73;100362.78;4502265;31;34246;-73
2022/07/19 01:23:04;;;;;;;3.45;1.05;;;;;;;18.73;46.66;100369.34;4490434;31;35666;-74
2022/07/19 01:25:50;;;;;;;2.78;0.90;;;;;;;18.37;48.00;100362.63;4502681;31;35024;-73
2022/07/19 01:28:37;;;;;;;2.45;0.70;;;;;;;18.83;46.46;100358.59;4463501;32;34548;-73
2022/07/19 01:31:24;;;;;;;4.12;0.93;;;;;;;18.49;47.30;100364.59;4486802;31;34210;-73
2022/07/19 01:34:11;;;;;;;1.10;0.70;;;;;;;18.73;45.75;100358.25;4502258;31;35538;-74
2022/07/19 01:36:59;;;;;;;1.33;0.75;;;;;;;19.05;44.87;100365.63;4497385;31;35765;-73
2022/07/19 01:39:46;;;;;;;2.60;0.70;;;;;;;18.96;45.33;100364.12;4502481;31;34593;-73
2022/07/19 01:42:33;;;;;;;3.70;0.80;;;;;;;18.76;45.09;100354.78;4502095;31;35104;-74
2022/07/19 01:45:21;;;;;;;2.03;0.68;;;;;;;19.05;44.51;100348.94;4502189;31;34759;-74
2022/07/19 01:48:07;;;;;;;1.83;0.80;;;;;;;19.20;44.30;100349.37;4502344;31;36085;-73
2022/07/19 01:50:54;;;;;;;1.77;0.75;;;;;;;19.20;44.89;100344.63;4479075;31;34557;-73
2022/07/19 01:53:42;;;;;;;1.58;0.80;;;;;;;19.02;44.65;100346.88;4489985;31;34990;-73
2022/07/19 01:56:28;;;;;;;4.18;1.25;;;;;;;19.05;44.96;100342.59;4501756;31;35544;-73
2022/07/19 01:59:15;;;;;;;3.12;0.70;;;;;;;18.90;45.29;100346.06;4481865;31;34998;-73
2022/07/19 02:02:02;;;;;;;1.52;0.65;;;;;;;18.86;45.36;100351.53;4489791;31;35390;-73
2022/07/19 02:04:49;;;;;;;2.75;1.00;;;;;;;18.66;46.31;100345.72;4489771;31;34095;-73
2022/07/19 02:07:36;;;;;;;2.28;0.80;;;;;;;18.55;46.90;100344.56;4489912;31;35565;-73
2022/07/19 02:10:22;;;;;;;2.42;0.80;;;;;;;18.09;48.09;100345.84;4502130;31;34997;-73
2022/07/19 02:13:09;;;;;;;2.20;0.60;;;;;;;17.81;49.32;100346.47;4496996;31;35351;-73
2022/07/19 02:15:55;;;;;;;3.12;0.98;;;;;;;17.94;48.48;100350.91;4478961;31;34012;-73
2022/07/19 02:18:41;;;;;;;3.78;1.08;;;;;;;18.53;47.18;100352.47;4490001;31;34651;-73
2022/07/19 02:21:28;;;;;;;2.50;0.90;;;;;;;18.42;48.70;100354.09;4489781;31;35024;-73
2022/07/19 02:24:15;;;;;;;2.83;0.80;;;;;;;18.15;48.13;100361.09;4489737;31;34334;-73
2022/07/19 02:27:01;;;;;;;3.20;0.90;;;;;;;18.09;47.13;100356.94;4492840;31;34213;-73
2022/07/19 02:29:48;;;;;;;3.65;0.98;;;;;;;18.07;47.34;100364.78;4501833;31;35507;-73
2022/07/19 02:32:35;;;;;;;1.52;0.70;;;;;;;18.28;46.11;100359.97;4485960;32;35928;-73
2022/07/19 02:35:22;;;;;;;4.75;0.90;;;;;;;18.50;46.24;100357.88;4474130;32;35380;-73
2022/07/19 02:38:08;;;;;;;3.00;0.60;;;;;;;18.22;46.23;100360.53;4487693;31;35105;-73
2022/07/19 02:40:56;;;;;;;2.08;0.70;;;;;;;18.09;46.77;100356.94;4501471;31;35673;-73
2022/07/19 02:43:43;;;;;;;3.83;0.68;;;;;;;18.10;46.53;100358.53;4501861;31;35957;-73
2022/07/19 02:46:29;;;;;;;1.95;0.75;;;;;;;18.14;46.16;100362.25;4477028;31;34514;-73
2022/07/19 02:49:16;;;;;;;3.03;0.90;;;;;;;18.42;44.93;100359.63;4500604;31;34204;-73
2022/07/19 02:52:03;;;;;;;4.80;0.70;;;;;;;18.52;44.95;100369.44;4501562;31;34633;-73
2022/07/19 02:54:49;;;;;;;1.73;0.80;;;;;;;18.40;45.55;100357.19;4501338;31;34987;-73
2022/07/19 02:57:36;;;;;;;1.92;0.85;;;;;;;18.00;46.82;100364.53;4489261;31;34505;-73
2022/07/19 03:00:23;;;;;;;4.25;0.85;;;;;;;17.86;48.75;100365.66;4481615;31;34141;-73
2022/07/19 03:06:17;;;;;;;4.15;0.93;;;;;;;17.39;49.52;100362.31;4500568;31;35075;-73
2022/07/19 03:09:04;;;;;;;3.45;0.75;;;;;;;17.46;49.23;100366.19;4488640;31;34492;-74
2022/07/19 03:11:54;;;;;;;4.18;0.80;;;;;;;17.59;49.02;100363.44;4500490;31;34138;-73
2022/07/19 03:19:14;;;;;;;4.03;0.65;;;;;;;18.07;47.19;100368.38;4501613;31;36019;-73
2022/07/19 03:22:01;;;;;;;1.62;0.60;;;;;;;17.01;49.20;100369.63;4489202;31;34599;-73
2022/07/19 03:24:47;;;;;;;2.08;0.70;;;;;;;17.35;48.75;100364.16;4470751;31;34137;-73
2022/07/19 03:27:35;;;;;;;3.70;0.82;;;;;;;17.51;48.67;100376.25;4501010;31;35644;-73
2022/07/19 03:30:23;;;;;;;1.48;0.73;;;;;;;17.94;48.00;100378.63;4497853;31;35236;-73
2022/07/19 03:33:15;;;;;;;4.47;1.00;;;;;;;18.16;47.50;100368.28;4489528;31;35419;-73
2022/07/19 03:36:01;;;;;;;2.25;0.80;;;;;;;17.67;49.34;100390.28;4501273;31;34200;-73
2022/07/19 03:38:47;;;;;;;6.37;1.00;;;;;;;17.72;49.72;100388.09;4499225;31;35626;-73
2022/07/19 03:41:34;;;;;;;3.33;1.00;;;;;;;18.11;48.94;100379.59;4496186;31;35902;-74
2022/07/19 03:44:21;;;;;;;4.55;1.05;;;;;;;18.23;48.76;100379.59;4496108;31;34550;-74
2022/07/19 03:47:07;;;;;;;3.87;0.90;;;;;;;18.50;47.96;100388.41;4493788;31;33098;-75
2022/07/19 03:49:57;;;;;;;2.50;0.95;;;;;;;18.48;47.79;100390.72;4492999;31;35570;-74
2022/07/19 03:52:43;;;;;;;1.98;0.80;;;;;;;18.27;48.59;100394.41;4483784;31;34497;-74
2022/07/19 03:55:29;;;;;;;2.45;0.85;;;;;;;18.40;48.09;100395.22;4494634;31;34602;-74
2022/07/19 03:58:16;;;;;;;5.72;1.00;;;;;;;17.66;50.72;100400.56;4489694;31;35036;-74
2022/07/19 04:01:03;;;;;;;3.12;1.05;;;;;;;17.47;51.27;100409.34;4490597;31;34614;-74
2022/07/19 04:03:51;;;;;;;2.95;1.15;;;;;;;17.72;50.70;100407.50;4495934;31;35985;-75
2022/07/19 04:06:40;;;;;;;3.03;1.20;;;;;;;17.67;51.11;100410.50;4496111;31;35500;-75
2022/07/19 04:09:27;;;;;;;3.90;0.95;;;;;;;17.31;50.88;100411.94;4483637;31;35003;-75
2022/07/19 04:12:15;;;;;;;5.22;1.10;;;;;;;17.66;50.60;100413.59;4498401;31;34691;-74
2022/07/19 04:15:05;;;;;;;2.78;0.98;;;;;;;17.57;48.67;100413.69;4486968;31;35029;-74
2022/07/19 04:17:53;;;;;;;2.53;0.90;;;;;;;17.20;50.73;100410.72;4487782;31;34576;-74
2022/07/19 04:20:41;;;;;;;5.00;1.25;;;;;;;17.81;49.28;100407.44;4488501;31;34128;-73
2022/07/19 04:23:27;;;;;;;8.98;1.20;;;;;;;17.60;50.14;100417.72;4497689;31;34655;-73
2022/07/19 04:26:14;;;;;;;2.70;1.08;;;;;;;17.78;49.17;100416.44;4488328;31;35900;-73
2022/07/19 04:29:02;;;;;;;4.18;1.00;;;;;;;18.07;48.39;100418.28;4501559;31;35180;-73
2022/07/19 04:31:49;;;;;;;2.67;0.80;;;;;;;17.84;48.99;100426.16;4489618;31;34047;-74
2022/07/19 04:34:35;;;;;;;6.60;1.08;;;;;;;17.84;49.05;100422.59;4501591;31;34690;-74
2022/07/19 04:37:23;;;;;;;3.58;0.90;;;;;;;17.94;49.16;100420.19;4488540;31;35009;-74
2022/07/19 04:40:09;;;;;;;5.15;1.30;;;;;;;18.40;48.08;100426.56;4489644;31;34543;-74
2022/07/19 04:42:56;;;;;;;6.53;1.08;;;;;;;18.13;48.22;100419.69;4489535;31;35003;-74
2022/07/19 04:45:44;;;;;;;3.97;1.25;;;;;;;18.50;47.78;100427.25;4501766;31;34675;-74
2022/07/19 04:48:31;;;;;;;6.30;1.15;;;;;;;18.91;47.98;100422.69;4501223;31;34006;-75
2022/07/19 04:51:21;;;;;;;5.35;1.10;;;;;;;19.25;48.04;100418.59;4501977;31;34539;-74
2022/07/19 04:54:11;;;;;;;3.87;1.17;;;;;;;19.04;47.86;100416.78;4501598;31;35003;-74
2022/07/19 04:56:58;;;;;;;4.75;1.02;;;;;;;19.35;47.35;100420.84;4500451;31;34644;-74
2022/07/19 04:59:51;;;;;;;5.05;1.10;;;;;;;19.44;47.30;100413.22;4490027;31;35018;-74
2022/07/19 05:02:39;;;;;;;3.65;0.98;;;;;;;19.59;47.14;100403.31;4500915;31;35381;-74
2022/07/19 05:05:27;;;;;;;3.20;0.93;;;;;;;19.80;47.01;100419.00;4489299;31;34022;-74
2022/07/19 05:08:17;;;;;;;4.43;1.50;;;;;;;19.58;47.34;100410.03;4501028;31;34911;-74
2022/07/19 05:11:03;;;;;;;3.78;1.00;;;;;;;19.48;47.56;100416.09;4501518;31;36034;-74
2022/07/19 05:13:50;;;;;;;4.40;0.98;;;;;;;19.83;46.75;100418.31;4499430;31;35346;-75
2022/07/19 05:16:37;;;;;;;7.43;1.40;;;;;;;19.55;46.53;100419.91;4500618;31;35059;-75
2022/07/19 05:19:24;;;;;;;3.70;1.20;;;;;;;19.52;46.64;100422.56;4498998;31;35587;-75
2022/07/19 05:22:11;;;;;;;3.67;1.27;;;;;;;19.05;48.41;100414.81;4483103;31;34993;-76
2022/07/19 05:24:59;;;;;;;2.67;0.98;;;;;;;20.05;46.42;100420.50;4486262;31;34484;-76
2022/07/19 05:27:47;;;;;;;5.97;1.20;;;;;;;20.69;43.37;100413.06;4486178;31;34051;-75
2022/07/19 05:30:36;;;;;;;3.50;0.90;;;;;;;20.83;43.13;100418.12;4486388;31;34810;-75
2022/07/19 05:33:28;;;;;;;6.12;1.77;;;;;;;19.84;45.78;100417.16;4476044;31;34680;-75
2022/07/19 05:36:18;;;;;;;5.55;1.10;;;;;;;19.93;46.14;100420.59;4487694;31;34638;-75
2022/07/19 05:39:14;;;;;;;2.75;1.02;;;;;;;20.79;44.92;100414.47;4489128;31;34958;-75
2022/07/19 05:42:03;;;;;;;2.92;1.05;;;;;;;20.92;43.50;100404.00;4498560;31;35580;-75
2022/07/19 05:44:50;;;;;;;2.35;1.00;;;;;;;21.09;43.74;100407.22;4484729;31;34938;-76
2022/07/19 05:47:37;;;;;;;3.28;0.90;;;;;;;21.44;41.98;100406.41;4498741;31;34719;-75
2022/07/19 05:50:24;;;;;;;2.35;0.85;;;;;;;21.53;41.97;100404.22;4498799;31;32805;-76
2022/07/19 05:53:12;;;;;;;4.85;1.05;;;;;;;21.62;41.55;100415.16;4487895;31;34536;-75
2022/07/19 05:56:01;;;;;;;4.87;1.20;;;;;;;22.20;40.89;100414.31;4485407;31;34429;-75
2022/07/19 05:58:49;;;;;;;5.47;0.88;;;;;;;21.55;40.70;100404.66;4496582;31;35484;-76
2022/07/19 06:01:35;;;;;;;3.90;1.10;;;;;;;21.84;41.11;100410.81;4500068;31;32913;-76
2022/07/19 06:04:28;;;;;;;5.95;1.85;;;;;;;22.12;40.44;100409.75;4497540;31;34727;-75
2022/07/19 06:07:16;;;;;;;5.30;1.17;;;;;;;22.67;39.52;100401.94;4497708;31;35962;-75
2022/07/19 06:10:04;;;;;;;6.47;1.48;;;;;;;22.87;39.39;100402.66;4486629;31;34480;-75
2022/07/19 06:12:51;;;;;;;8.68;1.27;;;;;;;22.49;39.78;100406.44;4497247;31;34084;-76
2022/07/19 06:15:37;;;;;;;3.17;1.15;;;;;;;22.38;39.26;100411.84;4492432;31;34729;-75
2022/07/19 06:18:24;;;;;;;7.97;1.15;;;;;;;23.10;39.15;100408.22;4495740;31;34861;-76
2022/07/19 06:21:18;;;;;;;3.75;1.00;;;;;;;22.99;40.44;100404.44;4493217;31;34654;-76
2022/07/19 06:24:12;;;;;;;5.00;1.48;;;;;;;23.04;39.32;100409.72;4484637;31;34033;-76
2022/07/19 06:27:02;;;;;;;6.35;1.48;;;;;;;23.89;39.08;100403.66;4494380;31;35630;-76
2022/07/19 06:29:54;;;;;;;4.37;1.30;;;;;;;24.27;36.79;100410.03;4474287;31;35511;-76
2022/07/19 06:32:42;;;;;;;5.53;1.17;;;;;;;23.89;36.96;100410.06;4496774;31;34402;-76
2022/07/19 06:35:32;;;;;;;3.92;1.05;;;;;;;24.17;36.44;100409.56;4497839;31;35117;-76
2022/07/19 06:38:21;;;;;;;4.57;0.90;;;;;;;24.46;35.41;100405.06;4495234;31;34728;-76
2022/07/19 06:41:12;;;;;;;5.75;1.17;;;;;;;24.96;33.56;100407.44;4496682;31;35985;-75
2022/07/19 06:44:02;;;;;;;6.93;1.48;;;;;;;24.83;34.95;100415.34;4497038;31;33489;-77
2022/07/19 06:46:58;;;;;;;3.80;1.23;;;;;;;24.96;36.58;100415.84;4497214;31;34132;-77
2022/07/19 06:49:46;;;;;;;4.97;1.00;;;;;;;25.02;35.11;100408.69;4496758;31;34658;-77
2022/07/19 06:52:34;;;;;;;3.65;1.23;;;;;;;25.39;33.30;100410.53;4497629;31;34971;-77
2022/07/19 06:55:21;;;;;;;2.55;0.90;;;;;;;25.55;30.63;100413.00;4497593;31;35306;-77
2022/07/19 06:58:09;;;;;;;2.70;1.05;;;;;;;25.57;31.45;100414.19;4485091;31;35247;-77
2022/07/19 07:00:57;;;;;;;1.77;0.90;;;;;;;24.87;31.47;100405.00;4497150;31;34766;-76
2022/07/19 07:03:44;;;;;;;4.03;1.10;;;;;;;25.50;31.70;100410.56;4497728;31;35121;-76
2022/07/19 07:09:28;;;;;;;5.87;1.15;;;;;;;26.13;30.30;100405.59;4496516;31;33926;-76
2022/07/19 07:12:17;;;;;;;4.12;1.55;;;;;;;26.29;31.93;100399.59;4497385;31;35565;-76
2022/07/19 07:15:07;;;;;;;5.32;1.90;;;;;;;25.75;28.55;100386.19;4496824;31;35707;-76
2022/07/19 07:17:56;;;;;;;3.58;1.08;;;;;;;26.06;29.56;100388.72;4484832;31;34692;-76
2022/07/19 07:20:49;;;;;;;4.62;1.33;;;;;;;26.49;31.32;100386.75;4485107;31;34977;-76
2022/07/19 07:23:37;;;;;;;3.80;1.20;;;;;;;26.55;29.77;100390.78;4495123;31;34693;-76
2022/07/19 07:26:27;;;;;;;1.95;0.90;;;;;;;26.74;28.94;100386.75;4495228;31;35921;-76
2022/07/19 07:29:16;;;;;;;6.18;1.10;;;;;;;26.93;28.31;100391.16;4494301;31;35509;-76
2022/07/19 07:32:04;;;;;;;6.28;1.23;;;;;;;26.84;27.61;100385.16;4493019;31;34150;-76
2022/07/19 07:34:54;;;;;;;2.37;1.12;;;;;;;27.18;27.92;100382.72;4494907;31;34599;-76
2022/07/19 07:37:41;;;;;;;2.72;1.00;;;;;;;27.00;26.39;100377.06;4482766;31;35294;-76
2022/07/19 07:40:29;;;;;;;2.58;1.42;;;;;;;27.73;29.07;100379.25;4481844;31;34310;-77
2022/07/19 07:43:17;;;;;;;2.80;1.10;;;;;;;27.12;27.13;100376.66;4483882;31;34164;-76
2022/07/19 07:46:05;;;;;;;3.65;0.80;;;;;;;27.85;25.59;100369.56;4494437;31;34586;-76
2022/07/19 07:48:52;;;;;;;2.53;1.00;;;;;;;28.16;28.84;100373.38;4493041;31;35090;-76
2022/07/19 07:51:46;;;;;;;4.87;1.40;;;;;;;28.27;26.15;100378.16;4493871;31;35455;-76
2022/07/19 07:54:34;;;;;;;5.43;1.08;;;;;;;28.77;25.20;100374.91;4494247;31;34136;-77
2022/07/19 07:57:29;;;;;;;2.95;0.90;;;;;;;28.03;24.37;100369.44;4481171;31;36134;-76
2022/07/19 08:00:18;;;;;;;3.45;1.00;;;;;;;28.27;24.87;100370.50;4494474;31;34908;-76
2022/07/19 08:03:08;;;;;;;1.40;1.00;;;;;;;28.99;22.94;100384.75;4481845;31;34552;-76
2022/07/19 08:05:57;;;;;;;5.00;1.10;;;;;;;29.51;23.04;100387.41;4481331;31;34525;-75
2022/07/19 08:08:47;;;;;;;2.42;1.00;;;;;;;29.18;23.40;100380.56;4493769;31;34496;-76
2022/07/19 08:11:38;;;;;;;3.37;0.98;;;;;;;29.59;25.53;100374.78;4482644;31;35947;-76
2022/07/19 08:14:27;;;;;;;2.28;1.00;;;;;;;28.98;22.84;100380.34;4494132;31;34316;-76
2022/07/19 08:17:15;;;;;;;3.22;0.98;;;;;;;29.61;23.13;100368.75;4472937;31;32964;-76
2022/07/19 08:20:06;;;;;;;1.77;0.82;;;;;;;29.64;24.42;100373.56;4492029;31;34044;-76
2022/07/19 08:22:54;;;;;;;3.05;0.98;;;;;;;29.46;23.15;100373.78;4492755;31;34523;-77
2022/07/19 08:25:41;;;;;;;2.58;1.02;;;;;;;29.24;23.00;100372.44;4481106;31;34465;-76
2022/07/19 08:28:29;;;;;;;3.50;1.05;;;;;;;28.81;23.93;100372.87;4492887;31;34984;-76
2022/07/19 08:31:17;;;;;;;2.37;1.05;;;;;;;29.38;23.46;100372.25;4494372;31;35504;-76
2022/07/19 08:34:05;;;;;;;3.50;0.77;;;;;;;30.02;23.75;100364.94;4481210;31;34428;-76
2022/07/19 08:36:55;;;;;;;1.95;0.82;;;;;;;29.36;23.59;100363.41;4493120;31;34543;-77
2022/07/19 08:39:50;;;;;;;2.28;0.77;;;;;;;30.10;22.86;100368.47;4484093;31;34061;-77
2022/07/19 08:42:46;;;;;;;3.25;0.70;;;;;;;30.06;22.41;100362.09;4483234;31;35185;-77
2022/07/19 08:45:37;;;;;;;;;;;;;;;30.63;22.07;100361.16;4482701;31;34933;-77
2022/07/19 08:48:23;;;;;;;2.35;1.10;;;;;;;30.93;22.43;100363.84;4495199;31;35698;-77
2022/07/19 08:51:12;;;;;;;2.17;0.85;;;;;;;31.12;23.21;100362.28;4484879;31;33836;-78
2022/07/19 08:53:58;;;;;;;3.42;0.98;;;;;;;31.13;21.82;100358.19;4485457;31;34304;-78
2022/07/19 08:59:54;;;;;;;3.95;1.20;;;;;;;31.21;21.39;100352.41;4496132;31;34579;-77
2022/07/19 09:02:55;;;;;;;3.28;0.90;;;;;;;30.50;22.62;100355.31;4497320;31;34925;-78
2022/07/19 09:05:45;;;;;;;3.15;1.10;;;;;;;30.81;21.71;100355.22;4484128;31;35583;-77
2022/07/19 09:08:45;;;;;;;3.78;1.10;;;;;;;31.20;21.08;100345.97;4493082;31;35115;-78
2022/07/19 09:11:38;;;;;;;5.47;1.30;;;;;;;30.73;21.12;100346.03;4492053;31;34413;-77
2022/07/19 09:14:33;;;;;;;3.83;1.25;;;;;;;31.41;22.40;100343.94;4485862;31;35029;-77
2022/07/19 09:17:31;;;;;;;3.90;1.23;;;;;;;31.73;22.61;100344.00;4473140;31;34661;-77
2022/07/19 09:20:27;;;;;;;4.45;1.05;;;;;;;32.22;21.55;100340.50;4495919;31;34983;-78
2022/07/19 09:23:22;;;;;;;4.90;1.23;;;;;;;32.39;20.73;100335.59;4495539;31;34144;-78
2022/07/19 09:26:11;;;;;;;3.00;1.00;;;;;;;32.16;19.81;100337.38;4485122;31;34092;-78
2022/07/19 09:29:17;;;;;;;3.42;1.50;;;;;;;31.97;19.68;100341.09;4484566;31;35900;-78
2022/07/19 09:32:12;;;;;;;2.50;1.10;;;;;;;31.49;20.31;100337.69;4483363;31;34879;-77
2022/07/19 09:35:02;;;;;;;3.92;1.20;;;;;;;31.91;20.96;100342.88;4484101;31;34683;-78
2022/07/19 09:37:51;;;;;;;2.30;1.40;;;;;;;31.20;20.76;100345.16;4497036;31;33737;-78
2022/07/19 09:40:40;;;;;;;3.58;1.30;;;;;;;31.21;20.98;100346.75;4484166;31;34587;-78
2022/07/19 09:43:28;;;;;;;4.15;1.17;;;;;;;31.66;19.84;100338.53;4496178;31;34923;-78
2022/07/19 09:46:47;;;;;;;5.03;1.20;;;;;;;30.88;22.07;100336.09;4496156;31;33195;-77
2022/07/19 09:49:36;;;;;;;2.35;1.23;;;;;;;30.82;20.81;100343.44;4495090;31;34145;-78
2022/07/19 09:52:23;;;;;;;3.00;1.10;;;;;;;31.43;20.78;100333.78;4483612;31;35610;-77
2022/07/19 09:55:12;;;;;;;2.80;1.12;;;;;;;31.54;21.77;100340.00;4473860;31;36032;-77
2022/07/19 09:58:05;;;;;;;3.65;1.10;;;;;;;31.75;20.48;100340.75;4494646;31;34158;-78
2022/07/19 10:00:53;;;;;;;3.65;1.20;;;;;;;32.19;20.92;100330.84;4484578;31;36465;-78
2022/07/19 10:03:43;;;;;;;4.55;1.30;;;;;;;32.69;19.28;100335.22;4484748;31;34332;-78
2022/07/19 10:06:41;;;;;;;6.37;1.10;;;;;;;32.00;20.35;100324.00;4481773;31;34502;-78
2022/07/19 10:09:30;;;;;;;9.32;1.52;;;;;;;32.09;20.12;100325.41;4493648;31;34634;-78
2022/07/19 10:12:22;;;;;;;5.68;1.35;;;;;;;32.90;21.42;100321.69;4484650;31;35649;-78
2022/07/19 10:15:12;;;;;;;3.28;1.30;;;;;;;33.33;20.21;100323.34;4496251;31;34670;-78
2022/07/19 10:18:10;;;;;;;2.00;1.20;;;;;;;33.01;19.60;100322.22;4496121;31;36215;-77
2022/07/19 10:21:00;;;;;;;3.62;1.37;;;;;;;32.46;19.81;100316.38;4496388;31;34760;-78
2022/07/19 10:23:51;;;;;;;3.72;1.48;;;;;;;33.07;19.74;100320.44;4485141;31;34120;-78
2022/07/19 10:26:42;;;;;;;6.60;1.40;;;;;;;33.50;18.89;100322.00;4483584;31;34601;-78
2022/07/19 10:29:35;;;;;;;3.25;1.25;;;;;;;32.35;19.78;100315.84;4482907;31;35948;-78
2022/07/19 10:32:31;;;;;;;4.93;1.48;;;;;;;32.87;18.90;100312.06;4482851;31;34563;-78
2022/07/19 10:35:21;;;;;;;3.10;1.10;;;;;;;32.38;20.32;100306.44;4483468;31;34562;-78
2022/07/19 10:38:14;;;;;;;2.97;1.23;;;;;;;32.89;19.19;100303.06;4494529;31;34893;-78
2022/07/19 10:41:27;;;;;;;3.92;1.30;;;;;;;31.18;20.32;100308.00;4495306;31;33930;-78
2022/07/19 10:44:15;;;;;;;2.95;1.40;;;;;;;32.17;20.28;100304.97;4494388;31;34398;-78
2022/07/19 10:47:05;;;;;;;2.55;1.50;;;;;;;32.28;20.32;100299.03;4495283;31;34034;-78
2022/07/19 10:50:00;;;;;;;4.28;1.58;;;;;;;32.01;19.55;100302.13;4495870;31;35509;-78
2022/07/19 10:52:48;;;;;;;1.85;1.15;;;;;;;33.27;20.39;100308.91;4482110;31;35710;-78
2022/07/19 10:55:42;;;;;;;4.40;1.35;;;;;;;33.42;19.78;100295.06;4494956;31;34580;-78
2022/07/19 10:58:56;;;;;;;3.10;1.35;;;;;;;34.25;19.84;100293.25;4483894;31;33862;-78
2022/07/19 11:02:05;;;;;;;5.57;1.45;;;;;;;34.91;20.38;100282.78;4472490;31;34252;-76
2022/07/19 11:05:25;;;;;;;3.00;1.48;;;;;;;34.86;18.16;100286.22;4494961;31;36611;-75
2022/07/19 11:08:13;;;;;;;;;;;;;;;34.88;17.34;100271.53;4483245;31;35470;-75
2022/07/19 11:11:12;;;;;;;3.30;1.35;;;;;;;35.48;17.59;100279.03;4495168;31;34059;-76
2022/07/19 11:14:04;;;;;;;6.78;1.40;;;;;;;35.31;18.30;100282.09;4495328;31;34216;-76
2022/07/19 11:17:00;;;;;;;3.75;1.30;;;;;;;35.00;17.95;100273.50;4482841;31;34883;-75
2022/07/19 11:20:07;;;;;;;2.78;1.40;;;;;;;34.51;18.07;100270.41;4483162;31;34768;-75
2022/07/19 11:26:15;;;;;;;1.70;1.15;;;;;;;34.97;18.58;100267.97;4484238;31;35544;-75
2022/07/19 11:29:04;;;;;;;4.55;1.30;;;;;;;34.73;17.31;100259.09;4459486;31;362617;-75
2022/07/19 11:31:52;;;;;;;4.22;1.40;;;;;;;32.85;19.34;100257.78;4478771;31;35655;-75
2022/07/19 11:34:53;;;;;;;3.10;1.15;;;;;;;34.61;17.50;100252.19;4479698;32;34078;-75
2022/07/19 11:37:41;;;;;;;4.35;1.20;;;;;;;34.07;18.86;100254.06;4479202;31;34685;-76
2022/07/19 11:40:36;;;;;;;2.97;1.55;;;;;;;34.38;17.61;100245.69;4479164;31;34934;-75
2022/07/19 11:43:26;;;;;;;3.60;1.40;;;;;;;34.64;17.62;100237.06;4478788;31;35515;-75
2022/07/19 11:46:16;;;;;;;3.50;1.40;;;;;;;34.38;18.37;100239.16;4479379;32;34754;-75
2022/07/19 11:49:10;;;;;;;2.90;1.37;;;;;;;34.88;18.16;100231.69;4466090;32;34240;-75
2022/07/19 11:52:00;;;;;;;3.12;1.25;;;;;;;34.57;19.35;100223.09;4466932;32;34606;-75
2022/07/19 11:55:01;;;;;;;3.03;1.20;;;;;;;35.33;18.46;100227.53;4479797;32;34577;-75
2022/07/19 11:57:54;;;;;;;3.53;1.30;;;;;;;35.18;17.99;100220.78;4479622;32;34041;-75
2022/07/19 12:00:43;;;;;;;3.87;1.37;;;;;;;36.05;17.38;100221.78;4478263;32;34415;-75
2022/07/19 12:03:32;;;;;;;2.05;1.20;;;;;;;35.96;16.54;100222.53;4475696;31;34685;-75
2022/07/19 12:06:39;;;;;;;5.28;1.50;;;;;;;36.23;16.39;100219.75;4478021;31;35576;-76
2022/07/19 12:09:33;;;;;;;6.25;1.35;;;;;;;35.93;17.28;100220.63;4474770;31;35255;-76
2022/07/19 12:12:21;;;;;;;5.57;1.40;;;;;;;36.08;19.36;100218.78;4472424;31;35567;-76
2022/07/19 12:15:09;;;;;;;5.78;1.55;;;;;;;33.59;18.55;100211.34;4470176;31;34542;-76
2022/07/19 12:17:56;;;;;;;6.80;1.70;;;;;;;35.54;18.30;100197.38;4478232;32;35493;-76
2022/07/19 12:20:46;;;;;;;4.93;1.40;;;;;;;35.94;18.02;100203.03;4477538;31;34386;-76
2022/07/19 12:23:35;;;;;;;2.78;1.30;;;;;;;35.44;17.50;100199.41;4479129;31;34698;-76
2022/07/19 12:26:23;;;;;;;4.05;1.20;;;;;;;34.41;18.08;100199.22;4476815;31;35518;-75
2022/07/19 12:29:35;;;;;;;6.10;1.75;;;;;;;35.97;17.65;100196.37;4487275;31;34720;-75
2022/07/19 12:32:30;;;;;;;2.35;1.30;;;;;;;35.66;17.01;100199.31;4495896;31;35089;-75
2022/07/19 12:35:19;;;;;;;5.28;2.70;;;;;;;35.19;16.85;100200.41;4483532;31;35523;-75
2022/07/19 12:38:11;;;;;;;;;;;;;;;34.17;17.64;100189.53;4496613;31;34508;-75
2022/07/19 12:41:17;;;;;;;2.28;1.17;;;;;;;34.71;16.92;100199.78;4485211;31;36162;-75
2022/07/19 12:44:05;;;;;;;3.33;1.40;;;;;;;35.35;17.21;100196.53;4494149;31;34905;-75
2022/07/19 12:47:05;;;;;;;6.40;1.42;;;;;;;34.40;17.78;100194.78;4473260;31;34382;-74
2022/07/19 12:50:23;;;;;;;4.80;1.12;;;;;;;33.18;18.38;100200.06;4494767;31;34935;-74
2022/07/19 12:53:16;;;;;;;3.50;1.58;;;;;;;34.99;16.76;100191.41;4495919;31;34147;-75
2022/07/19 12:56:04;;;;;;;3.00;1.30;;;;;;;34.26;18.27;100181.09;4496725;31;34129;-75
2022/07/19 13:02:15;;;;;;;5.25;1.33;;;;;;;34.79;17.33;100186.09;4493207;31;35554;-75
2022/07/19 13:05:04;;;;;;;4.87;1.20;;;;;;;33.52;18.72;100186.00;4481635;31;34949;-74
2022/07/19 13:07:52;;;;;;;3.80;1.40;;;;;;;34.18;17.79;100174.06;4492711;31;35026;-75
2022/07/19 13:10:39;;;;;;;3.83;1.40;;;;;;;34.40;17.84;100172.03;4467157;31;34529;-76
2022/07/19 13:16:30;;;;;;;4.32;1.48;;;;;;;34.24;18.29;100166.56;4484253;31;35647;-76
2022/07/19 13:19:22;;;;;;;2.78;1.30;;;;;;;33.40;18.74;100169.75;4493414;31;36646;-76
2022/07/19 13:22:12;;;;;;;6.35;1.80;;;;;;;35.34;17.65;100155.84;4472276;31;34310;-76
2022/07/19 13:25:01;;;;;;;3.42;1.33;;;;;;;35.52;16.12;100165.69;4470194;31;35799;-75
2022/07/19 13:28:11;;;;;;;1.75;1.10;;;;;;;34.64;16.99;100165.91;4481153;31;34246;-76
2022/07/19 13:31:00;;;;;;;4.78;1.30;;;;;;;35.44;15.99;100155.87;4494630;31;33834;-76
2022/07/19 13:33:50;;;;;;;;;;;;;;;35.78;16.02;100149.97;4492300;31;35536;-76
2022/07/19 13:36:39;;;;;;;2.70;1.27;;;;;;;34.95;17.05;100150.88;4494367;31;35124;-75